MAPA DE AEROPUERTO

INFORMACIÓN METAR y TAF

METAR FOR GCXO
ADDS - METARS form results

(1542 UTC 05 December 2020)
Data provider http://aviationweather.gov/metar/data/
 
METAR text: GCXO 051530Z 32016KT 290V350 9999 RA FEW004 BKN012 13/11 Q1019 WS R30 NOSIG
Conditions at: GCXO (TENERIFE/LOS ROD, ES) observed 1530 UTC 05 December 2020
Temperature: 13.0°C (55°F)
Dewpoint: 11.0°C (52°F) [RH = 88%]
Pressure (altimeter): 30.09 inches Hg (1019.0 mb)
Winds: from the NW (320 degrees) at 18 MPH (16 knots; 8.2 m/s)
Visibility: 6 or more miles (10+ km)
Ceiling: 1200 feet AGL
Clouds: few clouds at 400 feet AGL
broken clouds at 1200 feet AGL
Weather: RA  (moderate rain)

METAR text: GCXO 051500Z 33012KT 300V030 9999 FEW004 BKN012 14/12 Q1019 NOSIG
Conditions at: GCXO (TENERIFE/LOS ROD, ES) observed 1500 UTC 05 December 2020
Temperature: 14.0°C (57°F)
Dewpoint: 12.0°C (54°F) [RH = 88%]
Pressure (altimeter): 30.09 inches Hg (1019.0 mb)
Winds: from the NNW (330 degrees) at 14 MPH (12 knots; 6.2 m/s)
Visibility: 6 or more miles (10+ km)
Ceiling: 1200 feet AGL
Clouds: few clouds at 400 feet AGL
broken clouds at 1200 feet AGL
Weather: no significant weather observed at this time

Forecast for: GCXO (TENERIFE/LOS ROD, ES)
Text: TAF GCXO 051400Z 0515/0615 32015KT 9999 BKN015 TX15/0515Z TN12/0607Z
Forecast period: 1500 UTC 05 December 2020 to 1500 UTC 06 December 2020
Forecast type: FROM: standard forecast or significant change
Winds: from the NW (320 degrees) at 17 MPH (15 knots; 7.7 m/s)
Visibility: 6 or more miles (10+ km)
Ceiling: 1500 feet AGL
Clouds: broken clouds at 1500 feet AGL
Weather: no significant weather forecast for this period
Text: PROB30
Forecast period: 1500 to 1700 UTC 05 December 2020
Forecast type: TEMPORARY: The following changes expected for less than half the time period
Visibility: missing
Ceiling: 700 feet AGL
Clouds: broken clouds at 700 feet AGL
Weather: no significant weather forecast for this period
Text: TEMPO 0515/0517 BKN007
Forecast period: 0300 to 0800 UTC 06 December 2020
Forecast type: TEMPORARY: The following changes expected for less than half the time period
Visibility: 2.80 miles (4.51 km)
Ceiling: 500 feet AGL
Clouds: broken clouds at 500 feet AGL
Weather: RA BCFG  (moderate rain, patches of fog)